Terminal Aerodrome Forecast
Issued by NWS Lake Charles, LA

Home | Current Version | Previous Version | Text Only | Print | Product List | Glossary On
Versions: 1 2 3 4 5 6 7 8 9 10 11 12 13
000
FTUS44 KLCH 261737
TAFLCH
TAF
KLCH 261737Z 2618/2718 33010KT P6SM SKC
     FM270100 35003KT P6SM SKC
     FM270600 01004KT P6SM BKN250=

USA.gov is the U.S. government's official web portal to all federal, state and local government web resources and services.